Time;durP1;ratioP1;P1;durP2;ratioP2;P2;SDS_P1;SDS_P2;PMS_P1;PMS_P2;Temp;Humidity;BMP_temperature;BMP_pressure;BME280_temperature;BME280_humidity;BME280_pressure;Samples;Min_cycle;Max_cycle;Signal;HPM_P1;HPM_P2
2019/12/22 00:02:24;;;;;;;6.5;5.9;;;;;;;3.25;100;933.9623;;;;
2019/12/22 00:04:49;;;;;;;6.3;5.7;;;;;;;3.24;100;933.9713;;;;
2019/12/22 00:07:14;;;;;;;5.8;5.3;;;;;;;3.33;100;933.9564;;;;
2019/12/22 00:09:40;;;;;;;6.1;5.5;;;;;;;3.31;100;934.0536;;;;
2019/12/22 00:12:05;;;;;;;5.7;5.2;;;;;;;3.32;100;934.0511;;;;
2019/12/22 00:14:31;;;;;;;5.6;5.1;;;;;;;3.39;100;934.0725;;;;
2019/12/22 00:16:56;;;;;;;5.6;5.1;;;;;;;3.4;100;934.062;;;;
2019/12/22 00:19:22;;;;;;;5.6;5.1;;;;;;;3.33;100;934.1222;;;;
2019/12/22 00:21:47;;;;;;;5.9;5.4;;;;;;;3.19;100;934.2131;;;;
2019/12/22 00:24:12;;;;;;;6.3;5.7;;;;;;;3.29;100;934.4045;;;;
2019/12/22 00:26:37;;;;;;;5.8;5.2;;;;;;;3.5;99.63574;934.5582;;;;
2019/12/22 00:29:03;;;;;;;8.8;6.8;;;;;;;3.43;99.72168;934.64;;;;
2019/12/22 00:31:28;;;;;;;8.6;7.7;;;;;;;3.08;100;934.6495;;;;
2019/12/22 00:33:54;;;;;;;8.5;7.5;;;;;;;3.15;100;934.6917;;;;
2019/12/22 00:36:19;;;;;;;9.4;8.5;;;;;;;3.18;99.35742;934.827;;;;
2019/12/22 00:38:44;;;;;;;9.9;8.9;;;;;;;3;100;934.7767;;;;
2019/12/22 00:41:10;;;;;;;9.2;8.4;;;;;;;2.89;100;934.5386;;;;
2019/12/22 00:43:35;;;;;;;9.1;8.2;;;;;;;2.92;100;934.6948;;;;
2019/12/22 00:46:00;;;;;;;11.1;9.7;;;;;;;2.96;100;934.7586;;;;
2019/12/22 00:48:25;;;;;;;9.4;8.4;;;;;;;3.2;100;934.5678;;;;
2019/12/22 00:50:50;;;;;;;7.8;7.1;;;;;;;3.25;100;934.5489;;;;
2019/12/22 00:53:15;;;;;;;7.6;6.9;;;;;;;3.36;99.26563;934.3862;;;;
2019/12/22 00:55:40;;;;;;;7.3;6.6;;;;;;;3.41;99.375;934.2399;;;;
2019/12/22 00:58:06;;;;;;;8;7.2;;;;;;;3.17;99.88672;934.3258;;;;
2019/12/22 01:00:31;;;;;;;8.1;7.3;;;;;;;3.13;100;934.6802;;;;
2019/12/22 01:02:56;;;;;;;8.4;7.5;;;;;;;3.31;99.72754;934.468;;;;
2019/12/22 01:05:22;;;;;;;7.2;6.5;;;;;;;3.44;98.67285;934.2918;;;;
2019/12/22 01:07:47;;;;;;;7.8;7;;;;;;;3.4;100;934.3494;;;;
2019/12/22 01:10:12;;;;;;;8.8;7.9;;;;;;;3.27;100;934.3391;;;;
2019/12/22 01:12:37;;;;;;;7.6;6.9;;;;;;;3.35;100;934.3356;;;;
2019/12/22 01:15:02;;;;;;;8.2;7.4;;;;;;;3.31;100;934.2684;;;;
2019/12/22 01:17:28;;;;;;;8.7;7.9;;;;;;;3.26;100;934.4559;;;;
2019/12/22 01:19:53;;;;;;;8;7.3;;;;;;;3.41;100;934.3303;;;;
2019/12/22 01:22:18;;;;;;;7.4;6.7;;;;;;;3.41;100;934.3541;;;;
2019/12/22 01:24:43;;;;;;;5.8;5.2;;;;;;;3.51;100;934.4216;;;;
2019/12/22 01:27:09;;;;;;;5.5;5;;;;;;;3.39;100;934.4661;;;;
2019/12/22 01:29:34;;;;;;;6.4;5.8;;;;;;;3.32;100;934.4497;;;;
2019/12/22 01:31:59;;;;;;;6.7;6;;;;;;;3.25;100;934.4822;;;;
2019/12/22 01:34:25;;;;;;;7.5;6.7;;;;;;;3.19;100;934.4745;;;;
2019/12/22 01:36:50;;;;;;;7.8;6.5;;;;;;;3.38;100;934.4675;;;;
2019/12/22 01:39:16;;;;;;;7.3;6.5;;;;;;;3.42;100;934.4485;;;;
2019/12/22 01:41:41;;;;;;;6.9;6.2;;;;;;;3.28;99.93652;934.4614;;;;
2019/12/22 01:44:06;;;;;;;6.6;5.9;;;;;;;3.4;100;934.3622;;;;
2019/12/22 01:46:31;;;;;;;6.4;5.7;;;;;;;3.64;100;934.3553;;;;
2019/12/22 01:48:56;;;;;;;6.3;5.7;;;;;;;3.51;99.63867;934.4288;;;;
2019/12/22 01:51:22;;;;;;;6;5.3;;;;;;;3.71;99.77539;934.3119;;;;
2019/12/22 01:53:47;;;;;;;5.7;5.1;;;;;;;3.68;99.30469;934.286;;;;
2019/12/22 01:56:12;;;;;;;5.8;5.3;;;;;;;3.68;99.71191;934.2944;;;;
2019/12/22 01:58:38;;;;;;;6.9;6.2;;;;;;;3.73;99.66797;934.4344;;;;
2019/12/22 02:01:03;;;;;;;7.9;7;;;;;;;3.73;98.7168;934.3386;;;;
2019/12/22 02:03:28;;;;;;;8.4;7.6;;;;;;;3.72;98.97266;934.2647;;;;
2019/12/22 02:05:54;;;;;;;8.6;7.7;;;;;;;3.64;99.65625;934.278;;;;
2019/12/22 02:08:19;;;;;;;7;6.4;;;;;;;3.69;98.93066;934.1953;;;;
2019/12/22 02:10:44;;;;;;;7.2;6.3;;;;;;;3.63;99.46387;934.0453;;;;
2019/12/22 02:13:09;;;;;;;8.8;7.9;;;;;;;3.4;100;933.9791;;;;
2019/12/22 02:15:34;;;;;;;8.5;7.6;;;;;;;3.4;100;933.8931;;;;
2019/12/22 02:18:00;;;;;;;7.9;7.1;;;;;;;3.53;100;933.8242;;;;
2019/12/22 02:20:25;;;;;;;7.3;6.6;;;;;;;3.59;99.4873;933.7805;;;;
2019/12/22 02:22:51;;;;;;;6.6;6;;;;;;;3.61;100;933.6644;;;;
2019/12/22 02:25:16;;;;;;;7;6.3;;;;;;;3.65;100;933.5883;;;;
2019/12/22 02:27:41;;;;;;;7.2;6.5;;;;;;;3.59;100;933.5217;;;;
2019/12/22 02:30:07;;;;;;;6.5;5.9;;;;;;;3.64;100;933.4623;;;;
2019/12/22 02:32:32;;;;;;;7.2;6.5;;;;;;;3.57;100;933.4857;;;;
2019/12/22 02:34:57;;;;;;;7.8;7.1;;;;;;;3.6;100;933.4608;;;;
2019/12/22 02:37:23;;;;;;;6.1;5.5;;;;;;;3.65;100;933.3563;;;;
2019/12/22 02:39:48;;;;;;;6.8;6.2;;;;;;;3.82;100;933.2937;;;;
2019/12/22 02:42:13;;;;;;;7.1;6.4;;;;;;;3.71;100;933.1453;;;;
2019/12/22 02:44:38;;;;;;;7.1;6.4;;;;;;;3.7;100;933.0317;;;;
2019/12/22 02:47:03;;;;;;;7.6;6.9;;;;;;;3.45;100;932.93;;;;
2019/12/22 02:49:29;;;;;;;7;6.4;;;;;;;3.51;100;932.8279;;;;
2019/12/22 02:51:54;;;;;;;8.4;7.6;;;;;;;3.31;100;932.7316;;;;
2019/12/22 02:54:19;;;;;;;7.8;7;;;;;;;3.38;100;932.7261;;;;
2019/12/22 02:56:45;;;;;;;8.5;7.7;;;;;;;3.15;100;932.7233;;;;
2019/12/22 02:59:10;;;;;;;7.9;7.2;;;;;;;3.21;100;932.8425;;;;
2019/12/22 03:01:35;;;;;;;8.6;7.8;;;;;;;3.26;100;932.8898;;;;
2019/12/22 03:04:00;;;;;;;8.6;7.7;;;;;;;3.29;100;932.9023;;;;
2019/12/22 03:06:25;;;;;;;8.1;7.3;;;;;;;3.4;100;932.9402;;;;
2019/12/22 03:08:50;;;;;;;8.5;7.8;;;;;;;3.38;100;932.8454;;;;
2019/12/22 03:11:15;;;;;;;8.3;7.5;;;;;;;3.48;100;932.625;;;;
2019/12/22 03:13:40;;;;;;;7.9;7.2;;;;;;;3.35;100;932.5589;;;;
2019/12/22 03:16:05;;;;;;;8.1;7.3;;;;;;;3.31;100;932.6213;;;;
2019/12/22 03:18:30;;;;;;;7.7;7;;;;;;;3.38;100;932.5437;;;;
2019/12/22 03:20:56;;;;;;;6.7;6;;;;;;;3.45;100;932.4938;;;;
2019/12/22 03:23:21;;;;;;;6.7;6.1;;;;;;;3.56;100;932.4183;;;;
2019/12/22 03:25:46;;;;;;;7.6;6.9;;;;;;;3.31;100;932.6286;;;;
2019/12/22 03:28:11;;;;;;;6.8;6.1;;;;;;;3.48;100;932.6685;;;;
2019/12/22 03:30:36;;;;;;;7.7;6.9;;;;;;;3.54;100;932.5994;;;;
2019/12/22 03:33:01;;;;;;;7.1;6.4;;;;;;;3.65;100;932.7434;;;;
2019/12/22 03:35:27;;;;;;;8.1;7.3;;;;;;;3.33;100;932.838;;;;
2019/12/22 03:37:52;;;;;;;7.4;6.6;;;;;;;3.44;100;932.8536;;;;
2019/12/22 03:40:17;;;;;;;6.8;6.1;;;;;;;3.51;100;932.935;;;;
2019/12/22 03:42:42;;;;;;;6.7;6.1;;;;;;;3.56;100;932.9771;;;;
2019/12/22 03:45:07;;;;;;;7.1;6.2;;;;;;;3.62;100;932.895;;;;
2019/12/22 03:47:33;;;;;;;6.3;5.7;;;;;;;3.65;100;932.788;;;;
2019/12/22 03:49:58;;;;;;;6;5.5;;;;;;;3.63;100;932.8039;;;;
2019/12/22 03:52:24;;;;;;;5.7;5.2;;;;;;;3.6;100;932.8441;;;;
2019/12/22 03:54:49;;;;;;;5.7;5.2;;;;;;;3.59;100;932.7661;;;;
2019/12/22 03:57:15;;;;;;;5.3;4.7;;;;;;;3.65;100;932.8378;;;;
2019/12/22 03:59:40;;;;;;;5.2;4.7;;;;;;;3.65;99.83008;932.9031;;;;
2019/12/22 04:02:28;;;;;;;5.2;4.6;;;;;;;3.79;100;932.9844;;;;
2019/12/22 04:04:53;;;;;;;5.3;4.8;;;;;;;3.77;99.84668;933.0079;;;;
2019/12/22 04:07:18;;;;;;;5.3;4.8;;;;;;;3.68;100;933.0848;;;;
2019/12/22 04:09:43;;;;;;;4.7;4.3;;;;;;;3.78;99.83887;933.0778;;;;
2019/12/22 04:12:09;;;;;;;5.1;4.6;;;;;;;3.89;99.60352;933.033;;;;
2019/12/22 04:14:34;;;;;;;4.7;4.2;;;;;;;3.85;99.84082;933.0609;;;;
2019/12/22 04:16:59;;;;;;;5.6;5;;;;;;;3.94;98.76465;933.0699;;;;
2019/12/22 04:21:49;;;;;;;5.2;4.7;;;;;;;3.89;99.51367;933.182;;;;
2019/12/22 04:24:14;;;;;;;5.8;5.3;;;;;;;3.8;100;933.1688;;;;
2019/12/22 04:26:39;;;;;;;6;5.4;;;;;;;3.73;100;933.1872;;;;
2019/12/22 04:29:04;;;;;;;5.5;5;;;;;;;3.83;100;933.339;;;;
2019/12/22 04:31:30;;;;;;;5.6;5.1;;;;;;;3.93;99.74609;933.3649;;;;
2019/12/22 04:33:55;;;;;;;5.4;4.9;;;;;;;3.87;99.66797;933.5386;;;;
2019/12/22 04:36:21;;;;;;;5.4;4.9;;;;;;;3.93;99.40625;933.5002;;;;
2019/12/22 04:40:19;;;;;;;5.8;5.2;;;;;;;3.77;99.42773;933.5852;;;;
2019/12/22 04:42:44;;;;;;;5.6;5.1;;;;;;;3.76;99.3457;933.618;;;;
2019/12/22 04:45:10;;;;;;;5.9;5.4;;;;;;;3.74;99.58887;933.6505;;;;
2019/12/22 04:47:35;;;;;;;6;5.5;;;;;;;3.56;100;933.6298;;;;
2019/12/22 04:50:00;;;;;;;6.4;5.7;;;;;;;3.52;100;933.6883;;;;
2019/12/22 04:52:25;;;;;;;6.7;6.1;;;;;;;3.55;100;933.7584;;;;
2019/12/22 04:54:50;;;;;;;6.3;5.8;;;;;;;3.65;100;933.82;;;;
2019/12/22 04:57:15;;;;;;;6;5.5;;;;;;;3.77;100;933.8115;;;;
2019/12/22 04:59:40;;;;;;;7.1;6.4;;;;;;;3.84;100;933.7722;;;;
2019/12/22 05:02:05;;;;;;;7;6.3;;;;;;;3.98;99.61133;933.8152;;;;
2019/12/22 05:04:30;;;;;;;6.8;6.2;;;;;;;3.99;100;933.7644;;;;
2019/12/22 05:06:55;;;;;;;7.6;7;;;;;;;4.07;100;933.7332;;;;
2019/12/22 05:09:20;;;;;;;7.4;6.8;;;;;;;4.05;99.77539;933.7161;;;;
2019/12/22 05:11:46;;;;;;;7.4;6.8;;;;;;;4.09;99.53906;933.7241;;;;
2019/12/22 05:14:11;;;;;;;7.6;6.9;;;;;;;4.12;100;933.7427;;;;
2019/12/22 05:16:36;;;;;;;7.3;6.7;;;;;;;4.23;100;933.7187;;;;
2019/12/22 05:19:01;;;;;;;7.5;6.9;;;;;;;4.18;99.24023;933.7614;;;;
2019/12/22 05:21:26;;;;;;;7.4;6.7;;;;;;;4.14;100;933.688;;;;
2019/12/22 05:23:51;;;;;;;7.5;6.9;;;;;;;4.11;100;933.7017;;;;
2019/12/22 05:26:16;;;;;;;7.3;6.7;;;;;;;4.06;99.8252;933.6428;;;;
2019/12/22 05:28:41;;;;;;;7.3;6.7;;;;;;;4.06;100;933.6652;;;;
2019/12/22 05:31:06;;;;;;;7.4;6.7;;;;;;;4.15;100;933.6275;;;;
2019/12/22 05:33:31;;;;;;;7.1;6.5;;;;;;;4.16;100;933.6608;;;;
2019/12/22 05:35:56;;;;;;;6.9;6.3;;;;;;;4.2;99.35742;933.668;;;;
2019/12/22 05:38:21;;;;;;;6.7;6.1;;;;;;;4.14;99.2998;933.7098;;;;
2019/12/22 05:40:47;;;;;;;6.9;6.4;;;;;;;4.14;99.82129;933.6494;;;;
2019/12/22 05:43:12;;;;;;;6.7;6.1;;;;;;;4.24;98.20898;933.6655;;;;
2019/12/22 05:45:37;;;;;;;7;6.4;;;;;;;4.18;98.92285;933.6203;;;;
2019/12/22 05:48:02;;;;;;;6.9;6.3;;;;;;;4.1;99.37988;933.6202;;;;
2019/12/22 05:50:27;;;;;;;6.8;6.2;;;;;;;4.12;98.71777;933.6205;;;;
2019/12/22 05:52:52;;;;;;;6.3;5.8;;;;;;;4.01;98.28223;933.6348;;;;
2019/12/22 05:55:17;;;;;;;6.2;5.7;;;;;;;4.08;99.1377;933.601;;;;
2019/12/22 05:57:43;;;;;;;6.7;6.1;;;;;;;3.99;99.32129;933.5614;;;;
2019/12/22 06:00:08;;;;;;;6;5.5;;;;;;;4.16;97.35156;933.4486;;;;
2019/12/22 06:02:33;;;;;;;5.9;5.4;;;;;;;4.03;98.64746;933.5331;;;;
2019/12/22 06:04:58;;;;;;;5.4;5;;;;;;;4.03;99.35156;933.4856;;;;
2019/12/22 06:07:23;;;;;;;5;4.6;;;;;;;4.04;99.44434;933.5041;;;;
2019/12/22 06:09:48;;;;;;;4.8;4.4;;;;;;;4.02;97.61523;933.5525;;;;
2019/12/22 06:12:14;;;;;;;4.2;3.8;;;;;;;4.02;98.85156;933.4866;;;;
2019/12/22 06:14:39;;;;;;;4.4;4;;;;;;;4.13;98.20703;933.3851;;;;
2019/12/22 06:17:05;;;;;;;3.8;3.4;;;;;;;4.16;97.89551;933.4292;;;;
2019/12/22 06:19:30;;;;;;;3.6;3.3;;;;;;;4.18;97.35742;933.4091;;;;
2019/12/22 06:21:55;;;;;;;3.6;3.2;;;;;;;4.16;96.48047;933.3361;;;;
2019/12/22 06:24:21;;;;;;;3.9;3.4;;;;;;;4.1;97.19238;933.3328;;;;
2019/12/22 06:26:46;;;;;;;3.4;2.9;;;;;;;4;97.49805;933.347;;;;
2019/12/22 06:29:11;;;;;;;2.8;2.6;;;;;;;4.06;97.03613;933.3792;;;;
2019/12/22 06:31:36;;;;;;;2.9;2.6;;;;;;;4.12;96.99414;933.3713;;;;
2019/12/22 06:34:01;;;;;;;2.8;2.6;;;;;;;4.12;96.83301;933.3068;;;;
2019/12/22 06:36:26;;;;;;;3;2.7;;;;;;;4.12;97.02637;933.2754;;;;
2019/12/22 06:38:51;;;;;;;3.3;2.7;;;;;;;4.05;96.43164;933.3092;;;;
2019/12/22 06:41:16;;;;;;;3.1;2.6;;;;;;;4.08;96.6875;933.3295;;;;
2019/12/22 06:43:41;;;;;;;3.9;3.2;;;;;;;4.01;97.73828;933.3964;;;;
2019/12/22 06:46:06;;;;;;;2.9;2.6;;;;;;;4.06;97.27441;933.4001;;;;
2019/12/22 06:48:32;;;;;;;2.9;2.6;;;;;;;4.11;96.77441;933.3593;;;;
2019/12/22 06:50:57;;;;;;;3.2;2.9;;;;;;;4.11;97.34375;933.3286;;;;
2019/12/22 06:53:23;;;;;;;2.8;2.6;;;;;;;4.09;97.24414;933.385;;;;
2019/12/22 06:55:48;;;;;;;3;2.8;;;;;;;4.12;96.98047;933.3309;;;;
2019/12/22 06:58:14;;;;;;;2.7;2.5;;;;;;;4.27;96.4707;933.4116;;;;
2019/12/22 07:00:39;;;;;;;2.7;2.5;;;;;;;4.22;96.55176;933.4399;;;;
2019/12/22 07:03:04;;;;;;;2.9;2.6;;;;;;;4.16;97.30664;933.4352;;;;
2019/12/22 07:05:29;;;;;;;3.1;2.8;;;;;;;4.17;97.09668;933.3834;;;;
2019/12/22 07:07:55;;;;;;;2.9;2.5;;;;;;;4.17;97.42383;933.3915;;;;
2019/12/22 07:10:20;;;;;;;3.3;2.7;;;;;;;4.19;97.02148;933.4609;;;;
2019/12/22 07:12:46;;;;;;;3.2;2.7;;;;;;;4.15;97.8623;933.5002;;;;
2019/12/22 07:15:11;;;;;;;3.8;2.7;;;;;;;4.22;97.42285;933.5469;;;;
2019/12/22 07:17:36;;;;;;;3.2;2.6;;;;;;;4.24;97.12305;933.5703;;;;
2019/12/22 07:20:01;;;;;;;3.5;3;;;;;;;4.06;97.22754;933.6428;;;;
2019/12/22 07:22:26;;;;;;;3.1;2.8;;;;;;;4.24;97.08887;933.6654;;;;
2019/12/22 07:24:51;;;;;;;3.4;3;;;;;;;4.27;96.53906;933.6961;;;;
2019/12/22 07:27:16;;;;;;;3;2.7;;;;;;;4.18;97.0293;933.7274;;;;
2019/12/22 07:29:42;;;;;;;3;2.7;;;;;;;4.22;96.88086;933.7357;;;;
2019/12/22 07:32:07;;;;;;;2.7;2.5;;;;;;;4.21;96.61328;933.7017;;;;
2019/12/22 07:34:32;;;;;;;2.9;2.6;;;;;;;4.16;97.09277;933.7494;;;;
2019/12/22 07:36:57;;;;;;;2.7;2.4;;;;;;;4.18;97.65234;933.796;;;;
2019/12/22 07:39:22;;;;;;;3.8;2.8;;;;;;;4.13;97.43652;933.8654;;;;
2019/12/22 07:41:47;;;;;;;3.2;2.4;;;;;;;4.22;98.00293;933.8864;;;;
2019/12/22 07:44:12;;;;;;;3.6;2.4;;;;;;;4.36;97.80664;933.8678;;;;
2019/12/22 07:46:38;;;;;;;3.8;3.2;;;;;;;4.43;97.39063;933.8984;;;;
2019/12/22 07:49:03;;;;;;;3;2.5;;;;;;;4.35;96.50098;933.9807;;;;
2019/12/22 07:51:28;;;;;;;2.3;2.1;;;;;;;4.48;97.32324;933.9969;;;;
2019/12/22 07:53:53;;;;;;;2.8;2.4;;;;;;;4.54;96.45215;933.9968;;;;
2019/12/22 07:56:18;;;;;;;3.1;2.5;;;;;;;4.41;97.54688;934.0298;;;;
2019/12/22 07:58:43;;;;;;;2.8;2.5;;;;;;;4.52;97.11621;934.0669;;;;
2019/12/22 08:01:08;;;;;;;3.2;2.4;;;;;;;4.62;96.0166;934.1025;;;;
2019/12/22 08:03:33;;;;;;;2.8;2.3;;;;;;;4.64;97.13281;934.08;;;;
2019/12/22 08:05:58;;;;;;;3.5;2.7;;;;;;;4.52;97.22949;934.0083;;;;
2019/12/22 08:08:23;;;;;;;2.9;2.6;;;;;;;4.47;98.09277;934.0574;;;;
2019/12/22 08:10:49;;;;;;;3.3;2.7;;;;;;;4.5;97.80566;934.0952;;;;
2019/12/22 08:13:14;;;;;;;2.6;2.2;;;;;;;4.6;96.98828;934.0516;;;;
2019/12/22 08:15:39;;;;;;;2.4;2;;;;;;;4.41;97.59277;934.0984;;;;
2019/12/22 08:18:04;;;;;;;3;2.3;;;;;;;4.62;97.27637;934.0994;;;;
2019/12/22 08:20:29;;;;;;;2.4;2.2;;;;;;;4.55;97.74805;934.097;;;;
2019/12/22 08:22:54;;;;;;;2.6;2;;;;;;;4.6;97.35156;934.1209;;;;
2019/12/22 08:25:19;;;;;;;3.9;2.4;;;;;;;4.67;96.4375;934.1945;;;;
2019/12/22 08:27:44;;;;;;;2.9;2.1;;;;;;;4.71;97.12695;934.2202;;;;
2019/12/22 08:30:09;;;;;;;4.7;2;;;;;;;4.82;97.23242;934.2679;;;;
2019/12/22 08:32:34;;;;;;;2.2;2;;;;;;;4.8;96.68164;934.2686;;;;
2019/12/22 08:35:00;;;;;;;2;1.7;;;;;;;4.95;95.35254;934.3145;;;;
2019/12/22 08:37:25;;;;;;;2.9;1.8;;;;;;;4.79;96.63574;934.3566;;;;
2019/12/22 08:39:50;;;;;;;2.4;1.8;;;;;;;4.84;96.47363;934.3653;;;;
2019/12/22 08:42:15;;;;;;;2.7;2.4;;;;;;;4.86;96.9209;934.3808;;;;
2019/12/22 08:44:40;;;;;;;3.2;1.9;;;;;;;4.99;95.73535;934.3279;;;;
2019/12/22 08:47:05;;;;;;;3.1;2;;;;;;;4.87;95.33301;934.4016;;;;
2019/12/22 08:49:31;;;;;;;5.1;3.2;;;;;;;4.9;96.89648;934.4177;;;;
2019/12/22 08:51:56;;;;;;;2.9;2.2;;;;;;;4.98;96.42676;934.4089;;;;
2019/12/22 08:54:21;;;;;;;2.7;2;;;;;;;5.04;95.82715;934.483;;;;
2019/12/22 08:56:46;;;;;;;3.1;2.5;;;;;;;5.06;95.46777;934.5566;;;;
2019/12/22 08:59:12;;;;;;;2.9;2.3;;;;;;;5.12;95.6748;934.5862;;;;
2019/12/22 09:01:37;;;;;;;3.2;2.4;;;;;;;5.18;95.81152;934.6202;;;;
2019/12/22 09:04:02;;;;;;;2.4;2;;;;;;;5.14;95.48535;934.67;;;;
2019/12/22 09:06:28;;;;;;;3.1;2.2;;;;;;;5.36;94.93066;934.6239;;;;
2019/12/22 09:08:53;;;;;;;2.4;2.2;;;;;;;5.38;94.95801;934.7092;;;;
2019/12/22 09:11:19;;;;;;;3.6;2.9;;;;;;;5.31;94.28223;934.7869;;;;
2019/12/22 09:13:44;;;;;;;3.7;2.5;;;;;;;5.46;94.17969;934.7721;;;;
2019/12/22 09:16:09;;;;;;;3.9;2.6;;;;;;;5.42;94.40137;934.7925;;;;
2019/12/22 09:18:35;;;;;;;4.1;2.9;;;;;;;5.46;92.55566;934.8521;;;;
2019/12/22 09:21:00;;;;;;;4.6;3.6;;;;;;;5.34;93.82617;934.9071;;;;
2019/12/22 09:23:25;;;;;;;3.9;3.4;;;;;;;5.48;93.20703;934.9249;;;;
2019/12/22 09:25:51;;;;;;;4.2;3;;;;;;;5.48;93.74219;934.9442;;;;
2019/12/22 09:28:16;;;;;;;3.3;2.5;;;;;;;5.46;92.04199;934.9749;;;;
2019/12/22 09:30:41;;;;;;;3.8;2.6;;;;;;;5.66;93.28027;934.9542;;;;
2019/12/22 09:33:06;;;;;;;3.3;2.6;;;;;;;5.61;92.41797;934.9736;;;;
2019/12/22 09:35:32;;;;;;;2.7;2.2;;;;;;;5.71;93.04199;934.9717;;;;
2019/12/22 09:37:57;;;;;;;2.6;2.2;;;;;;;5.8;92.90039;934.9398;;;;
2019/12/22 09:40:22;;;;;;;3.1;2;;;;;;;5.91;91.66211;934.9614;;;;
2019/12/22 09:42:48;;;;;;;3.2;2;;;;;;;5.94;91.25781;934.9213;;;;
2019/12/22 09:45:13;;;;;;;2.9;2.2;;;;;;;5.97;92.71094;934.8831;;;;
2019/12/22 09:47:39;;;;;;;5.3;3.4;;;;;;;6.04;91.72461;934.8716;;;;
2019/12/22 09:50:04;;;;;;;5.9;4.7;;;;;;;6.02;92.24512;934.8725;;;;
2019/12/22 09:52:30;;;;;;;5.8;3.9;;;;;;;6.16;90.65625;934.8817;;;;
2019/12/22 09:54:55;;;;;;;4.5;3;;;;;;;6.23;92.03809;934.8538;;;;
2019/12/22 09:57:20;;;;;;;4.8;3;;;;;;;6.14;92.08789;934.6998;;;;
2019/12/22 09:59:45;;;;;;;4.1;3;;;;;;;6.09;91.32422;934.6764;;;;
2019/12/22 10:02:10;;;;;;;4.1;3.4;;;;;;;6.2;90.3584;934.6978;;;;
2019/12/22 10:04:35;;;;;;;4.5;3.4;;;;;;;6.25;90.20605;934.6433;;;;
2019/12/22 10:07:00;;;;;;;5;3.5;;;;;;;6.28;90.98828;934.6359;;;;
2019/12/22 10:09:25;;;;;;;4.2;3.4;;;;;;;6.31;90.74512;934.6286;;;;
2019/12/22 10:11:51;;;;;;;3.7;2.9;;;;;;;6.45;90.21484;934.6114;;;;
2019/12/22 10:14:16;;;;;;;3.6;2.9;;;;;;;6.5;90.33887;934.5845;;;;
2019/12/22 10:16:41;;;;;;;4.4;2.8;;;;;;;6.44;90.55566;934.568;;;;
2019/12/22 10:19:07;;;;;;;5.2;2.7;;;;;;;6.44;89.73438;934.6198;;;;
2019/12/22 10:21:32;;;;;;;2.9;2.4;;;;;;;6.5;91.77734;934.5779;;;;
2019/12/22 10:23:57;;;;;;;2.8;2;;;;;;;6.64;90.41406;934.5195;;;;
2019/12/22 10:26:22;;;;;;;3.8;2.3;;;;;;;6.65;88.79883;934.5236;;;;
2019/12/22 10:28:47;;;;;;;3.6;2.1;;;;;;;6.74;88.70313;934.4785;;;;
2019/12/22 10:31:12;;;;;;;2.2;1.8;;;;;;;6.71;89.48242;934.5467;;;;
2019/12/22 10:33:37;;;;;;;2.5;1.9;;;;;;;6.7;90.22266;934.4875;;;;
2019/12/22 10:36:02;;;;;;;2.9;2;;;;;;;6.72;89.48438;934.4657;;;;
2019/12/22 10:38:28;;;;;;;3.1;2.2;;;;;;;6.58;89.8877;934.5555;;;;
2019/12/22 10:40:53;;;;;;;2.8;2.2;;;;;;;6.53;89.84473;934.4339;;;;
2019/12/22 10:43:18;;;;;;;3.4;2.1;;;;;;;6.72;88.79102;934.4761;;;;
2019/12/22 10:45:44;;;;;;;2.3;2;;;;;;;6.72;89.25684;934.4308;;;;
2019/12/22 10:48:09;;;;;;;3.5;2.1;;;;;;;6.79;88.95215;934.4375;;;;
2019/12/22 10:50:35;;;;;;;4;2.4;;;;;;;6.75;89.7207;934.4484;;;;
2019/12/22 10:53:00;;;;;;;2.7;2.2;;;;;;;6.9;89.65918;934.4368;;;;
2019/12/22 10:55:25;;;;;;;2.8;1.9;;;;;;;6.84;88.23145;934.3708;;;;
2019/12/22 10:57:50;;;;;;;2.9;1.9;;;;;;;6.81;89.49219;934.3848;;;;
2019/12/22 11:00:15;;;;;;;4.4;2.3;;;;;;;7.02;89.05762;934.4089;;;;
2019/12/22 11:02:40;;;;;;;3.5;2.3;;;;;;;7.08;88.16895;934.3858;;;;
2019/12/22 11:05:06;;;;;;;3.8;2.5;;;;;;;7.16;87.56836;934.2612;;;;
2019/12/22 11:07:31;;;;;;;3.1;2.3;;;;;;;7.16;87.62598;934.2516;;;;
2019/12/22 11:09:56;;;;;;;2.5;2.1;;;;;;;7.16;86.80176;934.2686;;;;
2019/12/22 11:12:21;;;;;;;3.2;2.3;;;;;;;7.06;87.46875;934.2687;;;;
2019/12/22 11:14:46;;;;;;;3.2;2.5;;;;;;;7.19;86.78613;934.1801;;;;
2019/12/22 11:17:11;;;;;;;4.3;2.4;;;;;;;7.29;87.32031;934.1887;;;;
2019/12/22 11:19:37;;;;;;;3.5;2.7;;;;;;;7.52;86.33887;934.1409;;;;
2019/12/22 11:22:02;;;;;;;3.5;2.4;;;;;;;7.57;85.94824;934.1283;;;;
2019/12/22 11:24:27;;;;;;;4.1;2.6;;;;;;;7.62;84.50488;934.1528;;;;
2019/12/22 11:26:52;;;;;;;3.2;2.8;;;;;;;7.55;86.13867;934.0703;;;;
2019/12/22 11:29:17;;;;;;;5.3;2.9;;;;;;;7.75;86.80859;934.0686;;;;
2019/12/22 11:31:42;;;;;;;5.5;3.3;;;;;;;7.87;85.97461;934.0542;;;;
2019/12/22 11:34:08;;;;;;;5.2;3.4;;;;;;;7.88;85.25586;934.0687;;;;
2019/12/22 11:36:33;;;;;;;3.7;2.6;;;;;;;7.94;84.14746;934.1311;;;;
2019/12/22 11:38:58;;;;;;;4;2.8;;;;;;;7.9;83.6582;934.1365;;;;
2019/12/22 11:41:23;;;;;;;2.8;2.1;;;;;;;7.94;83.67773;934.1246;;;;
2019/12/22 11:43:48;;;;;;;3.2;2.3;;;;;;;7.94;82.5918;934.1027;;;;
2019/12/22 11:46:14;;;;;;;2.7;1.8;;;;;;;8.09;81.17871;934.1251;;;;
2019/12/22 11:48:39;;;;;;;2.6;1.8;;;;;;;8.15;81.8418;934.0854;;;;
2019/12/22 11:51:04;;;;;;;3.4;1.7;;;;;;;8.2;82.0918;934.1384;;;;
2019/12/22 11:53:29;;;;;;;3.1;1.7;;;;;;;8.18;82.8418;934.0762;;;;
2019/12/22 11:55:54;;;;;;;2.6;1.8;;;;;;;8.28;82.89551;934.1258;;;;
2019/12/22 11:58:19;;;;;;;2.6;1.5;;;;;;;8.57;81.47461;934.0839;;;;
2019/12/22 12:00:44;;;;;;;2.5;1.4;;;;;;;8.6;80.2207;934.0703;;;;
2019/12/22 12:03:10;;;;;;;2;1.3;;;;;;;8.74;80.1543;934.0603;;;;
2019/12/22 12:05:35;;;;;;;3.3;1.4;;;;;;;8.62;80.97949;934.0784;;;;
2019/12/22 12:08:00;;;;;;;1.9;1.2;;;;;;;8.67;80.30176;934.1219;;;;
2019/12/22 12:10:25;;;;;;;2;1.1;;;;;;;8.65;79.95313;934.1161;;;;
2019/12/22 12:12:51;;;;;;;1.8;1.2;;;;;;;8.64;79.50586;934.1394;;;;
2019/12/22 12:15:16;;;;;;;0.9;0.8;;;;;;;8.6;79.94434;934.1411;;;;
2019/12/22 12:17:41;;;;;;;1.7;0.9;;;;;;;8.64;78.87402;934.2094;;;;
2019/12/22 12:20:06;;;;;;;1.3;0.9;;;;;;;8.73;79.5459;934.2654;;;;
2019/12/22 12:22:31;;;;;;;1.7;1;;;;;;;8.72;79.45215;934.2155;;;;
2019/12/22 12:24:56;;;;;;;1.9;0.8;;;;;;;8.67;79.85645;934.2512;;;;
2019/12/22 12:27:22;;;;;;;1.1;0.8;;;;;;;8.54;80.33594;934.1856;;;;
2019/12/22 12:29:47;;;;;;;1.1;0.8;;;;;;;8.58;79.84961;934.233;;;;
2019/12/22 12:32:12;;;;;;;1.1;0.7;;;;;;;8.58;80.74316;934.2281;;;;
2019/12/22 12:34:38;;;;;;;1.1;0.7;;;;;;;8.53;80.22949;934.2332;;;;
2019/12/22 12:37:03;;;;;;;1;0.9;;;;;;;8.45;81.0293;934.3063;;;;
2019/12/22 12:39:28;;;;;;;1.6;0.8;;;;;;;8.46;81.13184;934.3109;;;;
2019/12/22 12:41:53;;;;;;;1.8;0.9;;;;;;;8.44;80.41992;934.356;;;;
2019/12/22 12:44:18;;;;;;;2.6;0.9;;;;;;;8.5;80.34961;934.3253;;;;
2019/12/22 12:46:43;;;;;;;1.2;0.9;;;;;;;8.43;80.49902;934.3292;;;;
2019/12/22 12:49:08;;;;;;;1.8;0.9;;;;;;;8.46;81.00781;934.2922;;;;
2019/12/22 12:51:33;;;;;;;3.2;1.4;;;;;;;8.49;80.65723;934.3325;;;;
2019/12/22 12:53:59;;;;;;;1.9;1.3;;;;;;;8.48;80.89648;934.3538;;;;
2019/12/22 12:56:24;;;;;;;2.1;1.4;;;;;;;8.56;80.00684;934.3624;;;;
2019/12/22 12:58:49;;;;;;;1.7;1.1;;;;;;;8.48;80.96484;934.3505;;;;
2019/12/22 13:01:14;;;;;;;1.7;0.9;;;;;;;8.44;80.29395;934.3487;;;;
2019/12/22 13:03:39;;;;;;;1.9;0.9;;;;;;;8.41;80.36914;934.3085;;;;
2019/12/22 13:06:04;;;;;;;1.7;1;;;;;;;8.43;80.94336;934.317;;;;
2019/12/22 13:08:29;;;;;;;1.8;1.2;;;;;;;8.46;81.93359;934.2794;;;;
2019/12/22 13:10:55;;;;;;;1.4;1;;;;;;;8.54;81.3418;934.2653;;;;
2019/12/22 13:13:20;;;;;;;2;1.3;;;;;;;8.5;80.79688;934.3097;;;;
2019/12/22 13:15:45;;;;;;;1.4;1.2;;;;;;;8.61;80.63379;934.3381;;;;
2019/12/22 13:18:10;;;;;;;1;0.8;;;;;;;8.71;79.80371;934.293;;;;
2019/12/22 13:20:35;;;;;;;1.4;1.1;;;;;;;8.67;80.49609;934.389;;;;
2019/12/22 13:23:01;;;;;;;1.4;0.9;;;;;;;8.79;79.89941;934.4628;;;;
2019/12/22 13:25:26;;;;;;;0.9;0.8;;;;;;;8.67;80.4043;934.5295;;;;
2019/12/22 13:27:51;;;;;;;1.1;0.8;;;;;;;8.57;79.5498;934.522;;;;
2019/12/22 13:30:16;;;;;;;1.6;0.7;;;;;;;8.61;79.53418;934.593;;;;
2019/12/22 13:32:42;;;;;;;1.6;0.7;;;;;;;8.51;80.53516;934.5222;;;;
2019/12/22 13:35:07;;;;;;;1.3;0.8;;;;;;;8.57;80.24902;934.5644;;;;
2019/12/22 13:37:32;;;;;;;1.3;1;;;;;;;8.53;80.45801;934.5732;;;;
2019/12/22 13:39:58;;;;;;;1.1;0.8;;;;;;;8.53;80.35547;934.5528;;;;
2019/12/22 13:42:23;;;;;;;1.2;0.7;;;;;;;8.47;79.80664;934.6688;;;;
2019/12/22 13:44:48;;;;;;;1.3;0.7;;;;;;;8.54;80.23047;934.6541;;;;
2019/12/22 13:47:13;;;;;;;1.5;0.7;;;;;;;8.51;79.85938;934.6294;;;;
2019/12/22 13:49:38;;;;;;;1;0.7;;;;;;;8.42;80.01563;934.6718;;;;
2019/12/22 13:52:04;;;;;;;0.8;0.6;;;;;;;8.36;80.03906;934.8395;;;;
2019/12/22 13:54:29;;;;;;;1;0.7;;;;;;;8.4;80.02246;934.733;;;;
2019/12/22 13:56:54;;;;;;;0.9;0.6;;;;;;;8.39;80.31836;934.7875;;;;
2019/12/22 13:59:19;;;;;;;2;0.9;;;;;;;8.34;80.28711;934.7739;;;;
2019/12/22 14:01:45;;;;;;;1.7;0.8;;;;;;;8.25;80.62402;934.793;;;;
2019/12/22 14:04:10;;;;;;;1.4;0.7;;;;;;;8.29;80.89355;934.8147;;;;
2019/12/22 14:06:35;;;;;;;0.6;0.6;;;;;;;8.31;80.7041;934.9058;;;;
2019/12/22 14:09:00;;;;;;;1.2;0.9;;;;;;;8.28;80.49316;934.9005;;;;
2019/12/22 14:11:25;;;;;;;1.2;0.8;;;;;;;8.18;81.36621;934.9489;;;;
2019/12/22 14:13:50;;;;;;;1.6;1;;;;;;;8.32;80.68262;934.9601;;;;
2019/12/22 14:16:16;;;;;;;1;0.9;;;;;;;8.27;81.14258;935.0792;;;;
2019/12/22 14:18:41;;;;;;;1.7;1.1;;;;;;;8.14;81.25586;935.0508;;;;
2019/12/22 14:21:06;;;;;;;0.8;0.7;;;;;;;8.19;81.61914;935.0784;;;;
2019/12/22 14:23:31;;;;;;;2.1;1.1;;;;;;;8.14;81.41602;935.1912;;;;
2019/12/22 14:25:57;;;;;;;1.2;0.9;;;;;;;8.14;81.12988;935.1522;;;;
2019/12/22 14:28:22;;;;;;;1.7;1;;;;;;;8.12;81.47949;935.2537;;;;
2019/12/22 14:30:47;;;;;;;1;0.7;;;;;;;8.15;81.41797;935.2947;;;;
2019/12/22 14:33:12;;;;;;;1.1;0.8;;;;;;;8.16;81.33008;935.2604;;;;
2019/12/22 14:35:38;;;;;;;1.5;0.8;;;;;;;8.18;81.34473;935.3105;;;;
2019/12/22 14:38:03;;;;;;;1.3;0.8;;;;;;;8.11;81.87988;935.455;;;;
2019/12/22 14:40:28;;;;;;;1.9;1;;;;;;;8.06;82.16797;935.3533;;;;
2019/12/22 14:42:54;;;;;;;1.6;1.1;;;;;;;8.12;81.9502;935.4053;;;;
2019/12/22 14:45:19;;;;;;;1.1;1;;;;;;;8.03;82.32227;935.4583;;;;
2019/12/22 14:47:44;;;;;;;1.2;1;;;;;;;7.99;83.03516;935.4547;;;;
2019/12/22 14:50:10;;;;;;;1.1;0.9;;;;;;;8.02;83.06445;935.5598;;;;